Time;durP1;ratioP1;P1;durP2;ratioP2;P2;SDS_P1;SDS_P2;PMS_P1;PMS_P2;Temp;Humidity;BMP_temperature;BMP_pressure;BME280_temperature;BME280_humidity;BME280_pressure;Samples;Min_cycle;Max_cycle;Signal;HPM_P1;HPM_P2
2022/04/10 00:00:40;;;;;;;10.38;8.70;;;0.40;99.90;;;;;;5006013;28;20028;-73
2022/04/10 00:03:06;;;;;;;11.70;8.85;;;0.30;99.90;;;;;;5011319;28;20102;-74
2022/04/10 00:05:32;;;;;;;12.00;10.15;;;0.30;99.90;;;;;;5012363;28;20100;-74
2022/04/10 00:07:57;;;;;;;12.57;10.02;;;0.00;99.90;;;;;;5011902;28;20444;-72
2022/04/10 00:10:23;;;;;;;10.68;9.25;;;-0.10;99.90;;;;;;4987897;28;20026;-73
2022/04/10 00:12:48;;;;;;;12.38;10.73;;;-0.10;99.90;;;;;;4990343;28;20091;-73
2022/04/10 00:15:14;;;;;;;14.07;11.48;;;0.00;99.90;;;;;;4990101;28;20037;-73
2022/04/10 00:17:40;;;;;;;9.98;7.70;;;0.00;99.90;;;;;;4992265;28;20021;-73
2022/04/10 00:20:06;;;;;;;8.55;7.72;;;0.00;99.90;;;;;;4994946;28;20448;-73
2022/04/10 00:22:42;;;;;;;14.70;10.88;;;0.30;99.90;;;;;;5012334;28;20036;-73
2022/04/10 00:25:09;;;;;;;11.00;9.40;;;0.20;99.90;;;;;;5012663;28;20112;-73
2022/04/10 00:27:35;;;;;;;8.65;7.80;;;0.30;99.90;;;;;;5012535;28;20034;-73
2022/04/10 00:30:00;;;;;;;11.18;9.50;;;0.30;99.90;;;;;;4991982;28;20041;-73
2022/04/10 00:32:29;;;;;;;12.30;9.90;;;0.50;99.90;;;;;;5012391;28;20022;-72
2022/04/10 00:34:55;;;;;;;11.05;9.27;;;0.70;99.90;;;;;;4990939;28;20018;-73
2022/04/10 00:37:21;;;;;;;11.60;9.63;;;0.50;99.90;;;;;;5012398;28;20447;-73
2022/04/10 00:39:46;;;;;;;12.13;9.80;;;0.50;99.90;;;;;;4999038;28;20442;-72
2022/04/10 00:42:12;;;;;;;9.52;8.45;;;0.40;99.90;;;;;;4994666;28;20025;-73
2022/04/10 00:44:37;;;;;;;11.55;9.55;;;0.20;99.90;;;;;;4995150;28;20034;-73
2022/04/10 00:47:03;;;;;;;13.75;9.52;;;0.30;99.90;;;;;;4992804;28;20030;-73
2022/04/10 00:49:29;;;;;;;12.63;10.25;;;0.30;99.90;;;;;;5005589;28;20061;-73
2022/04/10 00:51:56;;;;;;;15.05;11.82;;;0.30;99.90;;;;;;4985585;28;20038;-73
2022/04/10 00:54:29;;;;;;;18.20;12.88;;;0.20;99.90;;;;;;5012312;28;20021;-73
2022/04/10 00:56:57;;;;;;;13.25;11.30;;;0.10;99.90;;;;;;4994615;28;20369;-73
2022/04/10 00:59:23;;;;;;;10.55;9.35;;;0.20;99.90;;;;;;4998969;28;20026;-72
2022/04/10 01:01:49;;;;;;;11.90;10.70;;;0.40;99.90;;;;;;5011945;28;20099;-73
2022/04/10 01:04:16;;;;;;;13.07;10.10;;;0.60;99.90;;;;;;5012187;28;20109;-73
2022/04/10 01:06:43;;;;;;;13.98;8.80;;;0.70;99.90;;;;;;4981614;28;20484;-72
2022/04/10 01:09:08;;;;;;;10.73;9.27;;;0.80;99.90;;;;;;4988206;28;20667;-72
2022/04/10 01:11:35;;;;;;;12.57;10.48;;;0.90;99.90;;;;;;4998501;28;20034;-72
2022/04/10 01:14:02;;;;;;;15.02;12.23;;;0.90;99.90;;;;;;5011012;28;20395;-72
2022/04/10 01:16:28;;;;;;;15.98;13.60;;;0.80;99.90;;;;;;4994290;28;20079;-71
2022/04/10 01:18:55;;;;;;;14.48;11.48;;;0.80;99.90;;;;;;5011537;28;20105;-72
2022/04/10 01:21:26;;;;;;;13.23;10.05;;;0.60;99.90;;;;;;5011681;28;20030;-73
2022/04/10 01:23:53;;;;;;;16.98;14.13;;;0.70;99.90;;;;;;4994191;28;20029;-73
2022/04/10 01:26:19;;;;;;;11.95;10.55;;;0.60;99.90;;;;;;5011785;28;20083;-72
2022/04/10 01:29:06;;;;;;;14.13;12.02;;;0.60;99.90;;;;;;5003986;28;20037;-73
2022/04/10 01:31:34;;;;;;;13.05;11.63;;;0.50;99.90;;;;;;4996141;28;20026;-74
2022/04/10 01:34:02;;;;;;;20.65;14.63;;;0.40;99.90;;;;;;5001184;28;20096;-73
2022/04/10 01:36:29;;;;;;;15.10;13.48;;;0.30;99.90;;;;;;5005411;28;20023;-73
2022/04/10 01:38:56;;;;;;;18.88;16.05;;;0.40;99.90;;;;;;4985774;28;20399;-73
2022/04/10 01:41:25;;;;;;;17.80;15.77;;;0.20;99.90;;;;;;4980441;28;20447;-73
2022/04/10 01:43:52;;;;;;;19.17;17.13;;;0.10;99.90;;;;;;4990816;28;20369;-75
2022/04/10 01:46:17;;;;;;;19.17;16.00;;;0.00;99.90;;;;;;5007061;28;20036;-75
2022/04/10 01:48:43;;;;;;;17.13;15.32;;;0.00;99.90;;;;;;5011633;28;20029;-73
2022/04/10 01:51:09;;;;;;;19.40;15.57;;;0.00;99.90;;;;;;5007979;28;20058;-73
2022/04/10 01:53:35;;;;;;;18.50;13.40;;;0.20;99.90;;;;;;5003429;28;20038;-74
2022/04/10 01:56:02;;;;;;;17.95;14.98;;;0.40;99.90;;;;;;5012108;28;20028;-74
2022/04/10 01:58:28;;;;;;;22.75;16.80;;;0.50;99.90;;;;;;5015581;28;20036;-73
2022/04/10 02:00:54;;;;;;;18.10;15.38;;;0.50;99.90;;;;;;5021966;28;20022;-74
2022/04/10 02:03:19;;;;;;;23.05;17.67;;;0.50;99.90;;;;;;4994080;28;20117;-73
2022/04/10 02:05:44;;;;;;;24.05;19.15;;;0.40;99.90;;;;;;5002627;28;20488;-72
2022/04/10 02:08:10;;;;;;;25.02;19.70;;;0.30;99.90;;;;;;5003322;28;20069;-74
2022/04/10 02:10:36;;;;;;;24.70;19.30;;;0.10;99.90;;;;;;4998161;28;20569;-74
2022/04/10 02:13:01;;;;;;;24.27;19.30;;;0.10;99.90;;;;;;4982550;28;20019;-74
2022/04/10 02:15:27;;;;;;;22.30;16.63;;;0.00;99.90;;;;;;4992535;28;20056;-74
2022/04/10 02:17:52;;;;;;;22.58;16.58;;;0.20;99.90;;;;;;5000145;28;20500;-73
2022/04/10 02:20:18;;;;;;;19.42;17.33;;;0.20;99.90;;;;;;4987357;28;20129;-74
2022/04/10 02:22:43;;;;;;;21.65;16.48;;;0.20;99.90;;;;;;4985274;28;20033;-75
2022/04/10 02:25:09;;;;;;;15.73;14.15;;;0.30;99.90;;;;;;5000203;28;20022;-73
2022/04/10 02:27:35;;;;;;;20.40;17.17;;;0.30;99.90;;;;;;4997453;28;20511;-73
2022/04/10 02:30:01;;;;;;;21.50;17.08;;;0.10;99.90;;;;;;4997172;28;20030;-73
2022/04/10 02:32:29;;;;;;;16.63;14.85;;;0.10;99.90;;;;;;5010724;28;20383;-73
2022/04/10 02:34:54;;;;;;;21.55;18.08;;;0.00;99.90;;;;;;5023595;28;20018;-74
2022/04/10 02:37:20;;;;;;;18.85;16.83;;;0.10;99.90;;;;;;5014745;28;20044;-74
2022/04/10 02:39:45;;;;;;;18.35;15.70;;;0.20;99.90;;;;;;5001339;28;20040;-74
2022/04/10 02:42:11;;;;;;;24.67;21.05;;;0.20;99.90;;;;;;5014437;28;20029;-73
2022/04/10 02:44:36;;;;;;;27.83;21.48;;;0.30;99.90;;;;;;4996706;28;20030;-72
2022/04/10 02:47:02;;;;;;;24.70;19.60;;;0.10;99.90;;;;;;5006027;28;20444;-73
2022/04/10 02:49:27;;;;;;;21.17;18.33;;;0.00;99.90;;;;;;5000960;28;20518;-73
2022/04/10 02:51:53;;;;;;;23.42;20.05;;;0.00;99.90;;;;;;5003552;28;20081;-73
2022/04/10 02:54:18;;;;;;;20.75;18.63;;;-0.10;99.90;;;;;;4998719;28;20034;-73
2022/04/10 02:56:44;;;;;;;24.73;20.58;;;-0.10;99.90;;;;;;5003864;28;20109;-73
2022/04/10 02:59:09;;;;;;;24.75;21.27;;;0.00;99.90;;;;;;5011683;28;20026;-73
2022/04/10 03:01:36;;;;;;;28.60;22.08;;;0.00;99.90;;;;;;4986388;28;20030;-72
2022/04/10 03:04:01;;;;;;;21.65;16.58;;;-0.10;99.90;;;;;;4993677;28;20033;-72
2022/04/10 03:06:26;;;;;;;19.73;17.73;;;-0.10;99.90;;;;;;4985846;28;20034;-72
2022/04/10 03:08:52;;;;;;;17.67;15.77;;;-0.10;99.90;;;;;;4994362;28;20504;-71
2022/04/10 03:11:23;;;;;;;20.90;18.55;;;-0.10;99.90;;;;;;5004482;28;20026;-72
2022/04/10 03:13:48;;;;;;;17.30;15.60;;;0.00;99.90;;;;;;4996356;28;20026;-72
2022/04/10 03:16:14;;;;;;;20.48;18.17;;;0.00;99.90;;;;;;5005372;28;20022;-73
2022/04/10 03:18:40;;;;;;;16.48;14.75;;;0.00;99.90;;;;;;5000782;28;20049;-73
2022/04/10 03:21:05;;;;;;;18.63;16.52;;;0.00;99.90;;;;;;4985602;28;20057;-73
2022/04/10 03:23:31;;;;;;;24.98;20.65;;;0.00;99.90;;;;;;4990001;28;20037;-72
2022/04/10 03:25:56;;;;;;;21.33;17.38;;;0.00;99.90;;;;;;4994307;28;20030;-73
2022/04/10 03:28:22;;;;;;;21.85;18.27;;;0.10;99.90;;;;;;4989623;28;20514;-73
2022/04/10 03:30:47;;;;;;;19.65;17.65;;;0.10;99.90;;;;;;5004319;28;20495;-73
2022/04/10 03:33:13;;;;;;;21.83;17.27;;;0.00;99.90;;;;;;5000782;28;20022;-73
2022/04/10 03:35:38;;;;;;;21.23;18.05;;;0.10;99.90;;;;;;5002543;28;20066;-73
2022/04/10 03:38:04;;;;;;;17.45;15.75;;;0.00;99.90;;;;;;5007088;28;20052;-73
2022/04/10 03:40:30;;;;;;;18.08;15.32;;;0.00;99.90;;;;;;5003796;28;20593;-73
2022/04/10 03:42:55;;;;;;;20.40;17.35;;;0.00;99.90;;;;;;5000418;28;20104;-73
2022/04/10 03:45:21;;;;;;;22.38;19.83;;;0.10;99.90;;;;;;5003476;28;20026;-73
2022/04/10 03:47:47;;;;;;;23.65;18.77;;;0.00;99.90;;;;;;5007143;28;20419;-73
2022/04/10 03:50:13;;;;;;;20.80;17.85;;;0.00;99.90;;;;;;4993491;28;20387;-73
2022/04/10 03:52:38;;;;;;;16.73;15.00;;;-0.10;99.90;;;;;;4996401;28;20025;-72
2022/04/10 03:55:04;;;;;;;20.00;17.35;;;-0.10;99.90;;;;;;4995707;28;20033;-72
2022/04/10 03:57:30;;;;;;;17.80;15.93;;;-0.10;99.90;;;;;;5010261;28;20476;-72
2022/04/10 03:59:56;;;;;;;16.42;13.75;;;0.00;99.90;;;;;;4993481;28;20058;-73
2022/04/10 04:02:25;;;;;;;18.45;15.88;;;0.10;99.90;;;;;;4978674;28;20025;-73
2022/04/10 04:04:51;;;;;;;23.30;17.30;;;0.00;99.90;;;;;;5013168;28;20067;-72
2022/04/10 04:07:17;;;;;;;18.35;15.38;;;-0.10;99.90;;;;;;5008926;28;20034;-72
2022/04/10 04:09:42;;;;;;;17.13;15.32;;;-0.20;99.90;;;;;;4986505;28;20100;-73
2022/04/10 04:12:08;;;;;;;19.58;17.25;;;-0.20;99.90;;;;;;4999701;28;20480;-73
2022/04/10 04:14:35;;;;;;;19.73;16.83;;;-0.10;99.90;;;;;;5002168;28;20019;-73
2022/04/10 04:17:01;;;;;;;17.50;15.60;;;-0.20;99.90;;;;;;4988993;28;20118;-73
2022/04/10 04:19:26;;;;;;;16.90;15.05;;;-0.20;99.90;;;;;;4986500;28;20117;-72
2022/04/10 04:21:52;;;;;;;18.95;16.25;;;-0.10;99.90;;;;;;5012507;28;20056;-72
2022/04/10 04:24:17;;;;;;;19.33;15.95;;;-0.10;99.90;;;;;;4984853;28;20131;-73
2022/04/10 04:26:43;;;;;;;17.33;13.25;;;0.20;99.90;;;;;;5006048;28;20054;-73
2022/04/10 04:29:08;;;;;;;16.83;13.40;;;0.30;99.90;;;;;;4993064;28;20522;-73
2022/04/10 04:31:34;;;;;;;16.08;14.05;;;0.50;99.90;;;;;;5009580;28;20036;-72
2022/04/10 04:33:59;;;;;;;19.30;15.07;;;0.60;99.90;;;;;;4994979;28;20388;-73
2022/04/10 04:36:25;;;;;;;18.77;14.27;;;0.50;99.90;;;;;;4995650;28;20511;-73
2022/04/10 04:38:52;;;;;;;18.42;16.00;;;0.40;99.90;;;;;;5003285;28;20041;-73
2022/04/10 04:41:18;;;;;;;21.50;16.05;;;0.30;99.90;;;;;;4999148;28;20026;-73
2022/04/10 04:43:44;;;;;;;16.35;14.60;;;0.30;99.90;;;;;;4994759;28;20080;-73
2022/04/10 04:46:09;;;;;;;17.77;14.60;;;0.40;99.90;;;;;;4998921;28;20036;-74
2022/04/10 04:48:35;;;;;;;17.33;15.23;;;0.60;99.90;;;;;;4994454;28;20033;-73
2022/04/10 04:51:02;;;;;;;18.33;14.68;;;0.60;99.90;;;;;;5012010;28;20503;-74
2022/04/10 04:53:28;;;;;;;15.82;13.90;;;0.60;99.90;;;;;;4984015;28;20030;-74
2022/04/10 04:55:53;;;;;;;16.33;14.45;;;0.70;99.90;;;;;;4979376;28;20056;-71
2022/04/10 04:58:19;;;;;;;19.02;17.00;;;0.70;99.90;;;;;;4984188;28;20030;-72
2022/04/10 05:00:45;;;;;;;17.23;14.70;;;0.70;99.90;;;;;;5009438;28;20025;-72
2022/04/10 05:03:11;;;;;;;17.40;14.13;;;0.60;99.90;;;;;;4984316;28;20046;-72
2022/04/10 05:05:36;;;;;;;17.08;14.00;;;0.70;99.90;;;;;;5001866;28;20498;-73
2022/04/10 05:08:03;;;;;;;17.60;15.55;;;0.70;99.90;;;;;;5000623;28;20031;-73
2022/04/10 05:10:29;;;;;;;16.88;15.10;;;0.70;99.90;;;;;;4978053;28;20034;-72
2022/04/10 05:12:54;;;;;;;19.83;17.08;;;0.70;99.90;;;;;;4995197;28;20027;-72
2022/04/10 05:15:20;;;;;;;21.83;18.60;;;0.60;99.90;;;;;;5007327;28;20031;-72
2022/04/10 05:17:46;;;;;;;38.63;34.42;;;0.60;99.90;;;;;;4984270;28;20026;-73
2022/04/10 05:20:11;;;;;;;25.40;22.75;;;0.60;99.90;;;;;;5005213;28;20022;-72
2022/04/10 05:22:37;;;;;;;24.35;21.33;;;0.50;99.90;;;;;;5002575;28;20167;-73
2022/04/10 05:25:03;;;;;;;22.92;20.58;;;0.60;99.90;;;;;;5011893;28;20033;-73
2022/04/10 05:27:28;;;;;;;20.08;17.75;;;0.60;99.90;;;;;;5001986;28;20049;-73
2022/04/10 05:29:54;;;;;;;19.05;17.08;;;0.60;99.90;;;;;;4974561;28;20022;-73
2022/04/10 05:32:19;;;;;;;20.67;16.67;;;0.60;99.90;;;;;;4992033;28;20407;-72
2022/04/10 05:34:45;;;;;;;18.23;14.85;;;0.70;99.90;;;;;;5005162;28;20018;-72
2022/04/10 05:37:11;;;;;;;20.83;17.85;;;0.80;99.90;;;;;;4984308;28;20049;-72
2022/04/10 05:39:39;;;;;;;20.67;18.00;;;1.00;99.90;;;;;;4998697;28;20472;-72
2022/04/10 05:42:06;;;;;;;22.10;16.05;;;1.00;99.90;;;;;;4984412;28;20113;-72
2022/04/10 05:44:32;;;;;;;21.58;17.40;;;1.00;99.90;;;;;;4995567;28;20046;-72
2022/04/10 05:46:57;;;;;;;17.50;15.63;;;1.10;99.90;;;;;;4994778;28;20053;-73
2022/04/10 05:49:23;;;;;;;16.73;14.43;;;1.20;99.90;;;;;;4994022;28;20022;-73
2022/04/10 05:51:50;;;;;;;17.70;14.50;;;1.40;99.90;;;;;;5018820;28;20398;-73
2022/04/10 05:54:16;;;;;;;18.02;13.07;;;1.50;99.90;;;;;;5001890;28;20026;-73
2022/04/10 05:56:41;;;;;;;16.50;13.52;;;1.50;99.90;;;;;;5019779;28;20021;-72
2022/04/10 05:59:07;;;;;;;17.30;12.98;;;1.60;99.90;;;;;;5013138;28;20029;-73
2022/04/10 06:01:32;;;;;;;18.98;14.43;;;1.60;99.90;;;;;;4997641;28;20026;-73
2022/04/10 06:03:57;;;;;;;21.80;14.80;;;1.50;99.90;;;;;;5002481;28;20034;-73
2022/04/10 06:06:23;;;;;;;15.23;12.63;;;1.60;99.90;;;;;;5004951;28;20113;-73
2022/04/10 06:08:49;;;;;;;18.42;13.75;;;1.70;99.90;;;;;;4994911;28;20029;-73
2022/04/10 06:11:14;;;;;;;15.50;13.65;;;1.70;99.90;;;;;;5008626;28;20547;-72
2022/04/10 06:13:40;;;;;;;15.18;11.55;;;1.70;99.90;;;;;;5008042;28;20029;-72
2022/04/10 06:16:05;;;;;;;14.38;11.45;;;1.70;99.90;;;;;;5031442;28;20014;-72
2022/04/10 06:18:31;;;;;;;15.02;11.68;;;1.70;99.90;;;;;;4986987;28;20018;-73
2022/04/10 06:20:56;;;;;;;15.48;10.20;;;1.70;99.90;;;;;;5014865;28;20530;-72
2022/04/10 06:23:23;;;;;;;14.38;10.77;;;1.70;99.90;;;;;;5011546;28;20034;-71
2022/04/10 06:25:49;;;;;;;13.43;9.65;;;1.70;99.90;;;;;;4987849;28;20026;-73
2022/04/10 06:28:15;;;;;;;13.23;9.32;;;1.80;99.90;;;;;;4984405;28;20085;-73
2022/04/10 06:30:43;;;;;;;20.33;14.30;;;2.00;99.90;;;;;;5004783;28;20472;-72
2022/04/10 06:33:09;;;;;;;14.43;9.32;;;2.10;99.90;;;;;;5008305;28;20019;-73
2022/04/10 06:35:34;;;;;;;17.05;10.15;;;2.20;99.90;;;;;;4988099;28;20092;-75
2022/04/10 06:38:00;;;;;;;18.65;11.63;;;2.20;99.90;;;;;;5001771;28;20021;-71
2022/04/10 06:40:25;;;;;;;13.15;9.02;;;2.20;99.90;;;;;;4986725;28;20026;-72
2022/04/10 06:42:51;;;;;;;16.10;9.25;;;2.40;99.90;;;;;;4990887;28;20105;-72
2022/04/10 06:45:17;;;;;;;9.45;7.97;;;2.50;99.90;;;;;;5005552;28;20036;-71
2022/04/10 06:47:42;;;;;;;13.07;8.50;;;2.40;99.90;;;;;;5001417;28;20068;-71
2022/04/10 06:50:08;;;;;;;14.88;7.85;;;2.50;99.90;;;;;;4986478;28;20165;-72
2022/04/10 06:52:35;;;;;;;12.05;8.68;;;2.30;99.90;;;;;;5007953;28;20101;-72
2022/04/10 06:55:01;;;;;;;14.18;8.98;;;2.30;99.90;;;;;;5005089;28;20061;-72
2022/04/10 06:57:27;;;;;;;14.32;8.38;;;2.30;99.90;;;;;;4983511;28;20026;-73
2022/04/10 06:59:52;;;;;;;13.25;8.80;;;2.30;99.90;;;;;;5004040;28;20026;-73
2022/04/10 07:02:18;;;;;;;11.80;7.30;;;2.50;99.90;;;;;;5007673;28;20488;-72
2022/04/10 07:04:45;;;;;;;12.77;7.03;;;2.40;99.90;;;;;;4987370;28;20644;-73
2022/04/10 07:07:10;;;;;;;10.38;6.70;;;2.50;99.90;;;;;;4983494;28;20053;-72
2022/04/10 07:09:36;;;;;;;11.05;5.78;;;2.60;99.90;;;;;;4986896;28;20484;-72
2022/04/10 07:12:02;;;;;;;14.25;6.53;;;2.60;99.90;;;;;;4988509;28;20097;-72
2022/04/10 07:14:27;;;;;;;11.27;5.88;;;2.60;99.90;;;;;;5004168;28;20078;-72
2022/04/10 07:16:53;;;;;;;12.20;6.13;;;2.70;99.90;;;;;;5000655;28;20029;-70
2022/04/10 07:19:18;;;;;;;12.73;4.97;;;2.60;99.90;;;;;;5004171;28;20034;-72
2022/04/10 07:24:28;;;;;;;13.57;6.07;;;2.70;99.90;;;;;;5002112;28;20510;-73
2022/04/10 07:26:54;;;;;;;15.13;6.57;;;2.80;99.90;;;;;;4995027;28;20111;-73
2022/04/10 07:29:20;;;;;;;9.70;5.68;;;3.10;99.90;;;;;;5001961;28;20062;-73
2022/04/10 07:31:45;;;;;;;11.50;5.10;;;2.90;99.90;;;;;;5006917;28;20026;-73
2022/04/10 07:34:11;;;;;;;9.52;4.90;;;3.10;99.90;;;;;;5005820;28;20034;-73
2022/04/10 07:36:37;;;;;;;13.43;5.38;;;3.00;99.90;;;;;;5000643;28;20022;-73
2022/04/10 07:39:03;;;;;;;9.50;5.28;;;3.10;99.90;;;;;;5002043;28;20081;-73
2022/04/10 07:41:28;;;;;;;10.75;5.68;;;3.20;99.90;;;;;;4989322;28;20530;-74
2022/04/10 07:43:54;;;;;;;11.73;4.90;;;3.20;99.90;;;;;;5005816;28;20028;-74
2022/04/10 07:49:04;;;;;;;13.60;5.38;;;3.20;99.90;;;;;;5010057;28;20100;-74
2022/04/10 07:51:29;;;;;;;10.90;5.30;;;3.20;99.90;;;;;;4983644;28;20046;-74
2022/04/10 07:53:56;;;;;;;11.10;5.43;;;3.30;99.90;;;;;;4982914;28;20018;-74
2022/04/10 07:56:23;;;;;;;9.10;5.22;;;3.40;99.90;;;;;;5013602;28;20041;-74
2022/04/10 07:58:49;;;;;;;12.30;5.70;;;3.40;99.90;;;;;;5012468;28;20022;-73
2022/04/10 08:01:14;;;;;;;10.95;5.47;;;3.30;99.90;;;;;;5000944;28;20022;-73
2022/04/10 08:03:40;;;;;;;10.15;4.82;;;3.40;99.90;;;;;;4982049;28;20026;-76
2022/04/10 08:06:05;;;;;;;11.50;6.13;;;3.30;99.90;;;;;;5001637;28;20037;-74
2022/04/10 08:08:31;;;;;;;12.05;5.60;;;3.30;99.90;;;;;;5000053;28;20045;-74
2022/04/10 08:10:57;;;;;;;10.52;5.32;;;3.40;99.90;;;;;;5005180;28;20034;-73
2022/04/10 08:13:22;;;;;;;12.50;6.50;;;3.50;99.90;;;;;;5006659;28;20105;-74
2022/04/10 08:15:48;;;;;;;11.52;6.28;;;3.80;99.90;;;;;;4983717;28;20108;-75
2022/04/10 08:18:14;;;;;;;11.38;5.25;;;4.00;99.90;;;;;;4999599;28;20034;-73
2022/04/10 08:20:40;;;;;;;8.60;5.03;;;4.10;99.90;;;;;;5005421;28;20399;-74
2022/04/10 08:23:06;;;;;;;9.73;5.43;;;4.20;99.90;;;;;;5006270;28;20081;-74
2022/04/10 08:25:32;;;;;;;12.68;5.00;;;4.40;99.90;;;;;;5000623;28;20026;-73
2022/04/10 08:27:57;;;;;;;10.45;4.93;;;4.50;99.90;;;;;;4999617;28;20076;-74
2022/04/10 08:30:23;;;;;;;8.38;4.57;;;4.60;99.90;;;;;;4987663;28;20030;-74
2022/04/10 08:32:48;;;;;;;10.43;5.95;;;4.50;99.90;;;;;;5006449;28;20387;-75
2022/04/10 08:35:15;;;;;;;8.48;4.00;;;4.60;99.90;;;;;;4999942;28;20101;-74
2022/04/10 08:37:41;;;;;;;7.43;3.80;;;4.60;99.90;;;;;;4999375;28;20126;-74
2022/04/10 08:40:07;;;;;;;9.02;3.92;;;4.70;99.90;;;;;;5005377;28;20035;-73
2022/04/10 08:42:33;;;;;;;6.60;3.72;;;4.80;99.90;;;;;;4992581;28;20042;-73
2022/04/10 08:44:59;;;;;;;7.88;3.97;;;4.70;99.90;;;;;;4982347;28;20026;-73
2022/04/10 08:47:25;;;;;;;8.88;4.03;;;4.60;99.90;;;;;;4999050;28;20026;-73
2022/04/10 08:49:51;;;;;;;6.95;3.80;;;4.50;99.90;;;;;;4987824;28;20049;-73
2022/04/10 08:52:18;;;;;;;7.80;3.53;;;4.60;99.90;;;;;;4988121;28;20033;-73
2022/04/10 08:54:49;;;;;;;8.38;3.92;;;4.80;99.90;;;;;;4982139;28;20522;-73
2022/04/10 08:57:15;;;;;;;7.47;4.15;;;5.10;99.90;;;;;;4999143;28;20496;-73
2022/04/10 08:59:41;;;;;;;6.60;3.53;;;5.10;99.90;;;;;;5004817;28;20030;-73
2022/04/10 09:02:07;;;;;;;5.80;3.40;;;5.10;99.90;;;;;;4993387;28;20397;-73
2022/04/10 09:04:33;;;;;;;5.50;3.35;;;5.10;99.90;;;;;;5012202;28;20025;-73
2022/04/10 09:07:07;;;;;;;9.15;3.70;;;5.00;99.90;;;;;;4998774;28;20059;-74
2022/04/10 09:09:34;;;;;;;8.02;3.00;;;5.40;99.90;;;;;;5011957;28;20518;-72
2022/04/10 09:12:00;;;;;;;8.18;3.13;;;5.90;99.90;;;;;;4998793;28;20061;-72
2022/04/10 09:14:35;;;;;;;8.45;2.90;;;5.80;99.90;;;;;;5001853;28;20380;-74
2022/04/10 09:17:10;;;;;;;7.37;3.30;;;5.40;99.90;;;;;;5005578;28;20420;-74
2022/04/10 09:19:38;;;;;;;7.00;3.08;;;5.30;99.90;;;;;;4992403;28;20023;-72
2022/04/10 09:22:22;;;;;;;11.68;2.80;;;5.30;99.90;;;;;;4992325;28;20445;-73
2022/04/10 09:25:26;;;;;;;6.68;3.08;;;5.30;99.90;;;;;;5005569;28;20021;-73
2022/04/10 09:27:53;;;;;;;6.90;3.13;;;5.30;99.90;;;;;;4924018;29;20111;-73
2022/04/10 09:30:20;;;;;;;6.28;2.78;;;5.50;99.90;;;;;;4931813;29;20535;-73
2022/04/10 09:32:48;;;;;;;5.53;2.72;;;5.40;99.90;;;;;;4961711;28;20069;-73
2022/04/10 09:35:23;;;;;;;6.10;2.83;;;5.50;99.90;;;;;;5006419;28;20049;-73
2022/04/10 09:37:54;;;;;;;6.70;4.00;;;6.00;99.90;;;;;;5009518;28;20171;-73
2022/04/10 09:40:32;;;;;;;6.18;3.20;;;6.00;99.90;;;;;;5005988;28;20403;-73
2022/04/10 09:43:18;;;;;;;6.53;3.20;;;6.00;99.90;;;;;;4998335;28;20081;-73
2022/04/10 09:45:44;;;;;;;7.03;2.58;;;6.20;99.90;;;;;;5010931;28;20026;-73
2022/04/10 09:48:23;;;;;;;5.43;2.47;;;6.40;99.90;;;;;;5002363;28;20034;-73
2022/04/10 09:50:56;;;;;;;9.57;2.60;;;6.20;99.90;;;;;;5005785;28;20030;-73
2022/04/10 09:53:22;;;;;;;6.22;3.00;;;6.00;99.90;;;;;;5017184;28;20022;-73
2022/04/10 09:56:05;;;;;;;5.47;2.50;;;5.80;99.90;;;;;;4988676;28;20022;-74
2022/04/10 09:58:32;;;;;;;7.10;2.40;;;5.80;99.90;;;;;;4995638;28;20027;-73
2022/04/10 10:00:59;;;;;;;6.93;2.47;;;5.70;99.90;;;;;;5002522;28;20032;-73
2022/04/10 10:03:29;;;;;;;5.07;3.00;;;5.70;99.90;;;;;;4992273;28;20021;-74
2022/04/10 10:05:57;;;;;;;5.80;2.75;;;5.80;99.90;;;;;;5022764;28;20083;-74
2022/04/10 10:08:24;;;;;;;7.13;2.90;;;5.90;99.90;;;;;;5002119;28;20049;-73
2022/04/10 10:10:50;;;;;;;7.53;2.85;;;6.20;99.90;;;;;;5007803;28;20089;-73
2022/04/10 10:13:16;;;;;;;8.13;2.47;;;6.30;99.90;;;;;;4990834;28;20026;-73
2022/04/10 10:15:43;;;;;;;7.53;3.30;;;6.30;99.90;;;;;;5006882;28;20027;-74
2022/04/10 10:18:10;;;;;;;6.63;2.55;;;6.10;99.90;;;;;;5001044;28;20026;-73
2022/04/10 10:20:38;;;;;;;5.32;2.35;;;6.00;99.90;;;;;;5001667;28;20034;-73
2022/04/10 10:23:07;;;;;;;5.70;2.20;;;5.90;99.90;;;;;;4983160;28;20050;-72
2022/04/10 10:25:52;;;;;;;7.32;2.58;;;5.90;99.90;;;;;;5004231;28;20026;-73
2022/04/10 10:28:56;;;;;;;4.35;2.20;;;6.30;99.90;;;;;;5015230;28;20022;-74
2022/04/10 10:31:36;;;;;;;5.13;2.38;;;7.00;99.90;;;;;;5014126;28;20036;-73
2022/04/10 10:34:05;;;;;;;4.57;2.10;;;7.20;99.90;;;;;;5003620;28;20045;-72
2022/04/10 10:36:31;;;;;;;4.28;2.05;;;6.60;99.90;;;;;;5013122;28;20050;-73
2022/04/10 10:38:57;;;;;;;3.70;1.95;;;6.40;99.90;;;;;;4985613;28;20077;-73
2022/04/10 10:41:23;;;;;;;6.25;2.10;;;6.10;99.90;;;;;;5007981;28;20439;-73
2022/04/10 10:43:49;;;;;;;4.32;2.00;;;6.00;99.90;;;;;;4989575;28;20022;-74
2022/04/10 10:46:21;;;;;;;4.30;1.92;;;5.90;99.90;;;;;;4983792;28;20022;-74
2022/04/10 10:48:50;;;;;;;4.88;2.42;;;6.00;99.90;;;;;;5001545;28;20439;-74
2022/04/10 10:51:15;;;;;;;6.07;2.28;;;6.20;99.90;;;;;;4990150;28;20033;-74
2022/04/10 10:53:46;;;;;;;5.15;1.95;;;6.90;99.90;;;;;;4990366;28;20018;-74
2022/04/10 10:56:27;;;;;;;3.92;1.88;;;6.60;99.90;;;;;;4995189;28;20401;-73
2022/04/10 10:58:55;;;;;;;3.00;1.88;;;6.40;99.90;;;;;;4990182;28;20058;-74
2022/04/10 11:01:28;;;;;;;3.60;1.80;;;6.30;99.90;;;;;;5003864;28;20508;-75
2022/04/10 11:04:06;;;;;;;3.92;2.05;;;6.30;99.90;;;;;;4983633;28;20031;-74
2022/04/10 11:06:43;;;;;;;4.45;2.13;;;6.30;99.90;;;;;;5014223;28;20108;-74
2022/04/10 11:09:29;;;;;;;3.63;1.95;;;6.50;99.90;;;;;;5000883;28;20037;-74
2022/04/10 11:11:57;;;;;;;5.40;2.20;;;6.90;99.90;;;;;;5000722;28;20037;-74
2022/04/10 11:14:39;;;;;;;4.03;2.10;;;6.70;99.90;;;;;;5004839;28;20105;-74
2022/04/10 11:17:40;;;;;;;3.50;2.20;;;6.60;99.90;;;;;;4994344;28;20022;-74
2022/04/10 11:20:09;;;;;;;4.75;2.42;;;6.40;99.90;;;;;;4926988;29;20047;-73
2022/04/10 11:22:44;;;;;;;4.20;2.65;;;6.30;99.90;;;;;;4971024;28;20037;-74
2022/04/10 11:25:11;;;;;;;4.50;2.60;;;6.40;99.90;;;;;;5000548;28;20040;-74
2022/04/10 11:27:56;;;;;;;4.82;2.40;;;7.00;99.90;;;;;;5002106;28;20061;-74
2022/04/10 11:30:29;;;;;;;5.68;2.60;;;7.00;99.90;;;;;;5000339;28;20396;-74
2022/04/10 11:33:02;;;;;;;3.97;2.10;;;6.70;99.90;;;;;;5011356;28;20591;-74
2022/04/10 11:35:33;;;;;;;6.20;2.92;;;6.40;99.90;;;;;;5018871;28;20083;-74
2022/04/10 11:38:00;;;;;;;4.43;2.33;;;6.40;99.90;;;;;;5014315;28;20136;-74
2022/04/10 11:40:30;;;;;;;6.15;2.80;;;6.50;99.90;;;;;;5013853;28;20099;-74
2022/04/10 11:42:58;;;;;;;4.53;2.38;;;6.50;99.90;;;;;;5000845;28;20030;-74
2022/04/10 11:45:26;;;;;;;6.35;2.50;;;6.60;99.90;;;;;;5009733;28;20027;-74
2022/04/10 11:47:52;;;;;;;6.97;2.45;;;6.80;99.90;;;;;;5009433;28;20018;-74
2022/04/10 11:50:19;;;;;;;5.78;2.25;;;7.20;99.90;;;;;;5012580;28;20022;-74
2022/04/10 11:53:05;;;;;;;6.38;2.60;;;7.50;99.90;;;;;;4999938;28;20068;-73
2022/04/10 11:55:34;;;;;;;3.20;1.92;;;7.20;99.90;;;;;;5006769;28;20074;-73
2022/04/10 11:58:08;;;;;;;5.20;2.17;;;7.00;99.90;;;;;;4986543;28;20448;-73
2022/04/10 12:00:33;;;;;;;4.35;2.10;;;6.80;99.90;;;;;;5008652;28;20161;-73
2022/04/10 12:02:59;;;;;;;4.80;1.80;;;6.90;99.90;;;;;;5012262;28;20117;-73
2022/04/10 12:05:32;;;;;;;4.85;1.90;;;7.20;99.90;;;;;;4993270;28;20480;-74
2022/04/10 12:08:01;;;;;;;6.43;2.03;;;8.20;99.90;;;;;;5002891;28;20030;-73
2022/04/10 12:10:27;;;;;;;3.22;1.60;;;8.20;99.90;;;;;;5004394;28;20029;-73
2022/04/10 12:12:53;;;;;;;5.15;2.08;;;8.00;99.90;;;;;;5020965;28;20017;-72
2022/04/10 12:15:20;;;;;;;4.50;2.10;;;7.70;99.90;;;;;;4999876;28;20030;-73
2022/04/10 12:17:50;;;;;;;4.63;1.90;;;7.40;99.90;;;;;;5002895;28;20023;-73
2022/04/10 12:20:21;;;;;;;4.13;1.88;;;7.40;99.90;;;;;;5010313;28;20053;-74
2022/04/10 12:22:47;;;;;;;4.43;1.83;;;8.20;99.90;;;;;;5001684;28;20388;-73
2022/04/10 12:25:12;;;;;;;6.68;2.00;;;8.30;99.90;;;;;;5005912;28;20110;-73
2022/04/10 12:27:38;;;;;;;4.55;1.90;;;7.80;99.90;;;;;;5002986;28;20504;-74
2022/04/10 12:30:09;;;;;;;4.65;1.92;;;7.40;99.90;;;;;;4999404;28;20113;-73
2022/04/10 12:32:35;;;;;;;3.63;1.80;;;7.20;99.90;;;;;;5000957;28;20484;-73
2022/04/10 12:35:11;;;;;;;4.53;2.03;;;7.20;99.90;;;;;;4980257;28;20026;-73
2022/04/10 12:37:45;;;;;;;3.90;1.77;;;7.20;99.90;;;;;;4995069;28;20018;-73
2022/04/10 12:40:11;;;;;;;4.57;2.28;;;7.20;99.90;;;;;;5018460;28;20487;-73
2022/04/10 12:42:41;;;;;;;4.72;1.90;;;7.20;99.90;;;;;;5017171;28;20084;-73
2022/04/10 12:45:11;;;;;;;5.25;2.20;;;7.10;99.90;;;;;;4983037;28;20026;-74
2022/04/10 12:47:42;;;;;;;3.63;1.52;;;7.10;99.90;;;;;;4997515;28;20026;-73
2022/04/10 12:50:10;;;;;;;4.63;1.80;;;6.90;99.90;;;;;;4992523;28;20030;-73
2022/04/10 12:52:40;;;;;;;4.97;2.17;;;6.90;99.90;;;;;;5008069;28;20037;-73